sensor_id;sensor_type;location;lat;lon;timestamp;temperature;humidity
74484;SHT31;62942;52.462;10.846;2023-03-11T00:00:17;0.2;98.6
74484;SHT31;62942;52.462;10.846;2023-03-11T00:01:24;0.2;98.6
74484;SHT31;62942;52.462;10.846;2023-03-11T00:02:34;0.2;98.6
74484;SHT31;62942;52.462;10.846;2023-03-11T00:03:44;0.2;98.6
74484;SHT31;62942;52.462;10.846;2023-03-11T00:04:54;0.2;98.7
74484;SHT31;62942;52.462;10.846;2023-03-11T00:06:04;0.2;98.6
74484;SHT31;62942;52.462;10.846;2023-03-11T00:07:14;0.2;98.6
74484;SHT31;62942;52.462;10.846;2023-03-11T00:08:24;0.2;98.6
74484;SHT31;62942;52.462;10.846;2023-03-11T00:09:34;0.2;98.6
74484;SHT31;62942;52.462;10.846;2023-03-11T00:10:45;0.2;98.5
74484;SHT31;62942;52.462;10.846;2023-03-11T00:11:54;0.2;98.6
74484;SHT31;62942;52.462;10.846;2023-03-11T00:13:05;0.2;98.5
74484;SHT31;62942;52.462;10.846;2023-03-11T00:14:14;0.2;98.6
74484;SHT31;62942;52.462;10.846;2023-03-11T00:15:14;0.2;98.5
74484;SHT31;62942;52.462;10.846;2023-03-11T00:16:24;0.2;98.5
74484;SHT31;62942;52.462;10.846;2023-03-11T00:17:34;0.2;98.5
74484;SHT31;62942;52.462;10.846;2023-03-11T00:18:44;0.2;98.5
74484;SHT31;62942;52.462;10.846;2023-03-11T00:19:54;0.2;98.6
74484;SHT31;62942;52.462;10.846;2023-03-11T00:21:04;0.2;98.6
74484;SHT31;62942;52.462;10.846;2023-03-11T00:22:14;0.2;98.6
74484;SHT31;62942;52.462;10.846;2023-03-11T00:23:24;0.2;98.6
74484;SHT31;62942;52.462;10.846;2023-03-11T00:24:24;0.2;98.6
74484;SHT31;62942;52.462;10.846;2023-03-11T00:25:35;0.2;98.7
74484;SHT31;62942;52.462;10.846;2023-03-11T00:26:44;0.2;98.7
74484;SHT31;62942;52.462;10.846;2023-03-11T00:27:54;0.2;98.6
74484;SHT31;62942;52.462;10.846;2023-03-11T00:28:54;0.2;98.7
74484;SHT31;62942;52.462;10.846;2023-03-11T00:30:05;0.2;98.7
74484;SHT31;62942;52.462;10.846;2023-03-11T00:31:14;0.2;98.6
74484;SHT31;62942;52.462;10.846;2023-03-11T00:32:24;0.2;98.6
74484;SHT31;62942;52.462;10.846;2023-03-11T00:33:34;0.2;98.7
74484;SHT31;62942;52.462;10.846;2023-03-11T00:34:44;0.2;98.6
74484;SHT31;62942;52.462;10.846;2023-03-11T00:35:54;0.2;98.7
74484;SHT31;62942;52.462;10.846;2023-03-11T00:37:04;0.2;98.7
74484;SHT31;62942;52.462;10.846;2023-03-11T00:38:15;0.2;98.7
74484;SHT31;62942;52.462;10.846;2023-03-11T00:39:24;0.2;98.7
74484;SHT31;62942;52.462;10.846;2023-03-11T00:40:34;0.2;98.7
74484;SHT31;62942;52.462;10.846;2023-03-11T00:41:44;0.2;98.7
74484;SHT31;62942;52.462;10.846;2023-03-11T00:42:54;0.2;98.6
74484;SHT31;62942;52.462;10.846;2023-03-11T00:44:04;0.2;98.6
74484;SHT31;62942;52.462;10.846;2023-03-11T00:45:14;0.2;98.6
74484;SHT31;62942;52.462;10.846;2023-03-11T00:46:24;0.2;98.6
74484;SHT31;62942;52.462;10.846;2023-03-11T00:47:34;0.2;98.6
74484;SHT31;62942;52.462;10.846;2023-03-11T00:48:44;0.1;98.5
74484;SHT31;62942;52.462;10.846;2023-03-11T00:49:54;0.1;98.5
74484;SHT31;62942;52.462;10.846;2023-03-11T00:50:54;0.2;98.5
74484;SHT31;62942;52.462;10.846;2023-03-11T00:52:04;0.1;98.5
74484;SHT31;62942;52.462;10.846;2023-03-11T00:53:14;0.1;98.5
74484;SHT31;62942;52.462;10.846;2023-03-11T00:54:24;0.1;98.5
74484;SHT31;62942;52.462;10.846;2023-03-11T00:55:25;0.1;98.5
74484;SHT31;62942;52.462;10.846;2023-03-11T00:56:24;0.1;98.4
74484;SHT31;62942;52.462;10.846;2023-03-11T00:57:24;0.1;98.4
74484;SHT31;62942;52.462;10.846;2023-03-11T00:58:24;0.1;98.5
74484;SHT31;62942;52.462;10.846;2023-03-11T00:59:34;0.1;98.4
74484;SHT31;62942;52.462;10.846;2023-03-11T01:00:44;0.2;98.4
74484;SHT31;62942;52.462;10.846;2023-03-11T01:01:54;0.1;98.4
74484;SHT31;62942;52.462;10.846;2023-03-11T01:03:04;0.1;98.4
74484;SHT31;62942;52.462;10.846;2023-03-11T01:04:04;0.1;98.3
74484;SHT31;62942;52.462;10.846;2023-03-11T01:05:14;0.1;98.3
74484;SHT31;62942;52.462;10.846;2023-03-11T01:06:24;0.2;98.3
74484;SHT31;62942;52.462;10.846;2023-03-11T01:07:34;0.1;98.3
74484;SHT31;62942;52.462;10.846;2023-03-11T01:08:44;0.1;98.2
74484;SHT31;62942;52.462;10.846;2023-03-11T01:09:44;0.1;98.2
74484;SHT31;62942;52.462;10.846;2023-03-11T01:10:54;0.1;98.1
74484;SHT31;62942;52.462;10.846;2023-03-11T01:12:04;0.1;98.1
74484;SHT31;62942;52.462;10.846;2023-03-11T01:13:14;0.1;98.1
74484;SHT31;62942;52.462;10.846;2023-03-11T01:14:24;0.1;98.1
74484;SHT31;62942;52.462;10.846;2023-03-11T01:15:35;0.1;98.1
74484;SHT31;62942;52.462;10.846;2023-03-11T01:16:44;0.1;98
74484;SHT31;62942;52.462;10.846;2023-03-11T01:17:54;0.1;98
74484;SHT31;62942;52.462;10.846;2023-03-11T01:19:04;0.1;98
74484;SHT31;62942;52.462;10.846;2023-03-11T01:20:14;0.1;98
74484;SHT31;62942;52.462;10.846;2023-03-11T01:21:14;0.1;98
74484;SHT31;62942;52.462;10.846;2023-03-11T01:22:24;0.1;98
74484;SHT31;62942;52.462;10.846;2023-03-11T01:23:34;0.1;98.1
74484;SHT31;62942;52.462;10.846;2023-03-11T01:24:44;0.1;98.1
74484;SHT31;62942;52.462;10.846;2023-03-11T01:25:54;0.1;98.1
74484;SHT31;62942;52.462;10.846;2023-03-11T01:27:04;0.1;98.1
74484;SHT31;62942;52.462;10.846;2023-03-11T01:28:04;0.1;98.1
74484;SHT31;62942;52.462;10.846;2023-03-11T01:29:04;0.1;98.1
74484;SHT31;62942;52.462;10.846;2023-03-11T01:30:15;0.1;98.1
74484;SHT31;62942;52.462;10.846;2023-03-11T01:31:14;0.1;98.1
74484;SHT31;62942;52.462;10.846;2023-03-11T01:32:24;0.1;98.1
74484;SHT31;62942;52.462;10.846;2023-03-11T01:33:34;0.1;98.1
74484;SHT31;62942;52.462;10.846;2023-03-11T01:34:44;0.1;98.1
74484;SHT31;62942;52.462;10.846;2023-03-11T01:35:54;0.1;98
74484;SHT31;62942;52.462;10.846;2023-03-11T01:37:04;0.1;98.1
74484;SHT31;62942;52.462;10.846;2023-03-11T01:38:14;0.1;98
74484;SHT31;62942;52.462;10.846;2023-03-11T01:39:24;0.1;97.9
74484;SHT31;62942;52.462;10.846;2023-03-11T01:40:25;0.1;97.9
74484;SHT31;62942;52.462;10.846;2023-03-11T01:41:34;0.1;97.9
74484;SHT31;62942;52.462;10.846;2023-03-11T01:42:44;0.1;97.9
74484;SHT31;62942;52.462;10.846;2023-03-11T01:43:54;0.1;97.9
74484;SHT31;62942;52.462;10.846;2023-03-11T01:44:54;0.1;97.8
74484;SHT31;62942;52.462;10.846;2023-03-11T01:46:07;0.1;97.8
74484;SHT31;62942;52.462;10.846;2023-03-11T01:47:33;0.1;97.8
74484;SHT31;62942;52.462;10.846;2023-03-11T01:48:24;0.1;97.8
74484;SHT31;62942;52.462;10.846;2023-03-11T01:49:24;0.1;97.8
74484;SHT31;62942;52.462;10.846;2023-03-11T01:50:35;0.1;97.8
74484;SHT31;62942;52.462;10.846;2023-03-11T01:51:45;0.1;97.8
74484;SHT31;62942;52.462;10.846;2023-03-11T01:52:54;0.1;97.7
74484;SHT31;62942;52.462;10.846;2023-03-11T01:54:06;0.1;97.7
74484;SHT31;62942;52.462;10.846;2023-03-11T01:55:14;0.1;97.7
74484;SHT31;62942;52.462;10.846;2023-03-11T01:56:24;0.1;97.7
74484;SHT31;62942;52.462;10.846;2023-03-11T01:57:35;0.1;97.6
74484;SHT31;62942;52.462;10.846;2023-03-11T01:58:45;0.1;97.6
74484;SHT31;62942;52.462;10.846;2023-03-11T01:59:54;0.1;97.5
74484;SHT31;62942;52.462;10.846;2023-03-11T02:01:04;0.1;97.4
74484;SHT31;62942;52.462;10.846;2023-03-11T02:02:05;0.1;97.4
74484;SHT31;62942;52.462;10.846;2023-03-11T02:03:06;0.1;97.3
74484;SHT31;62942;52.462;10.846;2023-03-11T02:04:14;0.1;97.2
74484;SHT31;62942;52.462;10.846;2023-03-11T02:05:14;0.1;97.2
74484;SHT31;62942;52.462;10.846;2023-03-11T02:06:24;0.1;97.2
74484;SHT31;62942;52.462;10.846;2023-03-11T02:07:34;0.1;97.2
74484;SHT31;62942;52.462;10.846;2023-03-11T02:08:44;0.1;97.2
74484;SHT31;62942;52.462;10.846;2023-03-11T02:09:54;0.1;97.1
74484;SHT31;62942;52.462;10.846;2023-03-11T02:10:54;0.1;97.1
74484;SHT31;62942;52.462;10.846;2023-03-11T02:12:04;0.1;97.1
74484;SHT31;62942;52.462;10.846;2023-03-11T02:13:14;0.1;97.1
74484;SHT31;62942;52.462;10.846;2023-03-11T02:14:24;0.1;97.1
74484;SHT31;62942;52.462;10.846;2023-03-11T02:15:34;0.1;97.1
74484;SHT31;62942;52.462;10.846;2023-03-11T02:16:44;0.1;97.2
74484;SHT31;62942;52.462;10.846;2023-03-11T02:17:54;0.1;97.2
74484;SHT31;62942;52.462;10.846;2023-03-11T02:19:08;0.1;97.2
74484;SHT31;62942;52.462;10.846;2023-03-11T02:20:17;0.1;97.2
74484;SHT31;62942;52.462;10.846;2023-03-11T02:21:16;0.1;97.2
74484;SHT31;62942;52.462;10.846;2023-03-11T02:22:24;0.1;97.2
74484;SHT31;62942;52.462;10.846;2023-03-11T02:23:36;0.1;97.2
74484;SHT31;62942;52.462;10.846;2023-03-11T02:24:45;0.1;97.2
74484;SHT31;62942;52.462;10.846;2023-03-11T02:25:55;0.1;97.3
74484;SHT31;62942;52.462;10.846;2023-03-11T02:27:05;0.1;97.2
74484;SHT31;62942;52.462;10.846;2023-03-11T02:28:14;0.1;97.2
74484;SHT31;62942;52.462;10.846;2023-03-11T02:29:25;0.1;97.2
74484;SHT31;62942;52.462;10.846;2023-03-11T02:30:34;0.1;97.1
74484;SHT31;62942;52.462;10.846;2023-03-11T02:31:44;0.1;97.1
74484;SHT31;62942;52.462;10.846;2023-03-11T02:32:54;0;97.1
74484;SHT31;62942;52.462;10.846;2023-03-11T02:33:54;0.1;97.1
74484;SHT31;62942;52.462;10.846;2023-03-11T02:35:04;0.1;97.1
74484;SHT31;62942;52.462;10.846;2023-03-11T02:36:04;0.1;97.1
74484;SHT31;62942;52.462;10.846;2023-03-11T02:37:15;0.1;97.1
74484;SHT31;62942;52.462;10.846;2023-03-11T02:38:24;0.1;97.1
74484;SHT31;62942;52.462;10.846;2023-03-11T02:39:35;0.1;97.2
74484;SHT31;62942;52.462;10.846;2023-03-11T02:40:47;0.1;97.2
74484;SHT31;62942;52.462;10.846;2023-03-11T02:41:54;0;97.2
74484;SHT31;62942;52.462;10.846;2023-03-11T02:43:05;0;97.1
74484;SHT31;62942;52.462;10.846;2023-03-11T02:44:14;0;97
74484;SHT31;62942;52.462;10.846;2023-03-11T02:45:24;0.1;97
74484;SHT31;62942;52.462;10.846;2023-03-11T02:46:34;0;97
74484;SHT31;62942;52.462;10.846;2023-03-11T02:47:44;0;97
74484;SHT31;62942;52.462;10.846;2023-03-11T02:48:54;0.1;97
74484;SHT31;62942;52.462;10.846;2023-03-11T02:50:05;0;96.8
74484;SHT31;62942;52.462;10.846;2023-03-11T02:51:14;0.1;96.8
74484;SHT31;62942;52.462;10.846;2023-03-11T02:52:24;0.1;96.8
74484;SHT31;62942;52.462;10.846;2023-03-11T02:53:35;0.1;96.7
74484;SHT31;62942;52.462;10.846;2023-03-11T02:54:44;0;96.6
74484;SHT31;62942;52.462;10.846;2023-03-11T02:55:54;0.1;96.6
74484;SHT31;62942;52.462;10.846;2023-03-11T02:57:04;0;96.6
74484;SHT31;62942;52.462;10.846;2023-03-11T02:58:14;0;96.7
74484;SHT31;62942;52.462;10.846;2023-03-11T02:59:24;0;96.7
74484;SHT31;62942;52.462;10.846;2023-03-11T03:00:34;0;96.6
74484;SHT31;62942;52.462;10.846;2023-03-11T03:01:44;0;96.6
74484;SHT31;62942;52.462;10.846;2023-03-11T03:02:54;0;96.5
74484;SHT31;62942;52.462;10.846;2023-03-11T03:04:04;0;96.4
74484;SHT31;62942;52.462;10.846;2023-03-11T03:05:14;0;96.4
74484;SHT31;62942;52.462;10.846;2023-03-11T03:06:24;0;96.3
74484;SHT31;62942;52.462;10.846;2023-03-11T03:07:24;0;96.3
74484;SHT31;62942;52.462;10.846;2023-03-11T03:08:34;0;96.3
74484;SHT31;62942;52.462;10.846;2023-03-11T03:09:34;0;96.3
74484;SHT31;62942;52.462;10.846;2023-03-11T03:10:44;0;96.4
74484;SHT31;62942;52.462;10.846;2023-03-11T03:11:54;0;96.3
74484;SHT31;62942;52.462;10.846;2023-03-11T03:13:04;0;96.4
74484;SHT31;62942;52.462;10.846;2023-03-11T03:14:14;0;96.4
74484;SHT31;62942;52.462;10.846;2023-03-11T03:15:14;0;96.3
74484;SHT31;62942;52.462;10.846;2023-03-11T03:16:24;0;96.3
74484;SHT31;62942;52.462;10.846;2023-03-11T03:17:34;0;96.3
74484;SHT31;62942;52.462;10.846;2023-03-11T03:18:44;0;96.3
74484;SHT31;62942;52.462;10.846;2023-03-11T03:19:54;0;96.3
74484;SHT31;62942;52.462;10.846;2023-03-11T03:21:04;0;96.2
74484;SHT31;62942;52.462;10.846;2023-03-11T03:22:04;0;96.2
74484;SHT31;62942;52.462;10.846;2023-03-11T03:23:14;0;96.2
74484;SHT31;62942;52.462;10.846;2023-03-11T03:24:24;0;96.1
74484;SHT31;62942;52.462;10.846;2023-03-11T03:25:24;0;96.1
74484;SHT31;62942;52.462;10.846;2023-03-11T03:26:34;0;96
74484;SHT31;62942;52.462;10.846;2023-03-11T03:27:44;0;96.1
74484;SHT31;62942;52.462;10.846;2023-03-11T03:28:54;0;95.9
74484;SHT31;62942;52.462;10.846;2023-03-11T03:29:54;0;95.7
74484;SHT31;62942;52.462;10.846;2023-03-11T03:30:54;0;95.6
74484;SHT31;62942;52.462;10.846;2023-03-11T03:32:04;0;95.6
74484;SHT31;62942;52.462;10.846;2023-03-11T03:33:14;0;95.6
74484;SHT31;62942;52.462;10.846;2023-03-11T03:34:24;0;95.7
74484;SHT31;62942;52.462;10.846;2023-03-11T03:35:34;0;95.7
74484;SHT31;62942;52.462;10.846;2023-03-11T03:36:44;0;95.7
74484;SHT31;62942;52.462;10.846;2023-03-11T03:37:54;0;95.8
74484;SHT31;62942;52.462;10.846;2023-03-11T03:39:04;0;95.8
74484;SHT31;62942;52.462;10.846;2023-03-11T03:40:05;0;95.8
74484;SHT31;62942;52.462;10.846;2023-03-11T03:41:14;0;95.8
74484;SHT31;62942;52.462;10.846;2023-03-11T03:42:14;-0.1;95.8
74484;SHT31;62942;52.462;10.846;2023-03-11T03:43:24;0;95.8
74484;SHT31;62942;52.462;10.846;2023-03-11T03:44:34;0;95.8
74484;SHT31;62942;52.462;10.846;2023-03-11T03:45:44;-0.1;95.9
74484;SHT31;62942;52.462;10.846;2023-03-11T03:46:54;-0.1;95.9
74484;SHT31;62942;52.462;10.846;2023-03-11T03:48:04;-0.1;96
74484;SHT31;62942;52.462;10.846;2023-03-11T03:49:14;-0.1;96
74484;SHT31;62942;52.462;10.846;2023-03-11T03:50:24;-0.1;95.9
74484;SHT31;62942;52.462;10.846;2023-03-11T03:51:24;-0.1;96
74484;SHT31;62942;52.462;10.846;2023-03-11T03:52:34;-0.1;96
74484;SHT31;62942;52.462;10.846;2023-03-11T03:53:44;-0.1;95.9
74484;SHT31;62942;52.462;10.846;2023-03-11T03:54:54;-0.1;96
74484;SHT31;62942;52.462;10.846;2023-03-11T03:56:04;-0.1;96
74484;SHT31;62942;52.462;10.846;2023-03-11T03:57:14;-0.1;95.9
74484;SHT31;62942;52.462;10.846;2023-03-11T03:58:24;-0.1;95.8
74484;SHT31;62942;52.462;10.846;2023-03-11T03:59:34;-0.1;95.9
74484;SHT31;62942;52.462;10.846;2023-03-11T04:00:44;-0.1;95.9
74484;SHT31;62942;52.462;10.846;2023-03-11T04:01:54;-0.1;95.8
74484;SHT31;62942;52.462;10.846;2023-03-11T04:03:04;-0.1;95.8
74484;SHT31;62942;52.462;10.846;2023-03-11T04:04:14;-0.1;95.8
74484;SHT31;62942;52.462;10.846;2023-03-11T04:05:14;-0.1;95.8
74484;SHT31;62942;52.462;10.846;2023-03-11T04:06:15;-0.1;95.8
74484;SHT31;62942;52.462;10.846;2023-03-11T04:07:24;-0.2;95.8
74484;SHT31;62942;52.462;10.846;2023-03-11T04:08:24;-0.1;95.8
74484;SHT31;62942;52.462;10.846;2023-03-11T04:09:34;-0.1;95.8
74484;SHT31;62942;52.462;10.846;2023-03-11T04:10:44;-0.2;95.8
74484;SHT31;62942;52.462;10.846;2023-03-11T04:11:54;-0.1;95.8
74484;SHT31;62942;52.462;10.846;2023-03-11T04:13:04;-0.1;95.8
74484;SHT31;62942;52.462;10.846;2023-03-11T04:14:14;-0.2;95.8
74484;SHT31;62942;52.462;10.846;2023-03-11T04:15:24;-0.1;95.8
74484;SHT31;62942;52.462;10.846;2023-03-11T04:16:34;-0.2;95.8
74484;SHT31;62942;52.462;10.846;2023-03-11T04:17:34;-0.2;95.8
74484;SHT31;62942;52.462;10.846;2023-03-11T04:18:44;-0.1;95.7
74484;SHT31;62942;52.462;10.846;2023-03-11T04:19:54;-0.2;95.7
74484;SHT31;62942;52.462;10.846;2023-03-11T04:21:04;-0.2;95.7
74484;SHT31;62942;52.462;10.846;2023-03-11T04:22:14;-0.2;95.8
74484;SHT31;62942;52.462;10.846;2023-03-11T04:23:24;-0.2;95.7
74484;SHT31;62942;52.462;10.846;2023-03-11T04:24:34;-0.2;95.8
74484;SHT31;62942;52.462;10.846;2023-03-11T04:25:34;-0.2;95.8
74484;SHT31;62942;52.462;10.846;2023-03-11T04:26:44;-0.2;95.8
74484;SHT31;62942;52.462;10.846;2023-03-11T04:27:54;-0.2;95.8
74484;SHT31;62942;52.462;10.846;2023-03-11T04:29:04;-0.2;95.8
74484;SHT31;62942;52.462;10.846;2023-03-11T04:30:14;-0.2;95.8
74484;SHT31;62942;52.462;10.846;2023-03-11T04:31:24;-0.2;95.8
74484;SHT31;62942;52.462;10.846;2023-03-11T04:32:34;-0.3;95.8
74484;SHT31;62942;52.462;10.846;2023-03-11T04:33:44;-0.3;95.8
74484;SHT31;62942;52.462;10.846;2023-03-11T04:34:44;-0.3;95.8
74484;SHT31;62942;52.462;10.846;2023-03-11T04:35:54;-0.4;95.8
74484;SHT31;62942;52.462;10.846;2023-03-11T04:37:04;-0.4;95.8
74484;SHT31;62942;52.462;10.846;2023-03-11T04:38:14;-0.4;95.7
74484;SHT31;62942;52.462;10.846;2023-03-11T04:39:14;-0.4;95.7
74484;SHT31;62942;52.462;10.846;2023-03-11T04:40:24;-0.4;95.7
74484;SHT31;62942;52.462;10.846;2023-03-11T04:41:34;-0.4;95.7
74484;SHT31;62942;52.462;10.846;2023-03-11T04:42:44;-0.5;95.7
74484;SHT31;62942;52.462;10.846;2023-03-11T04:43:54;-0.5;95.7
74484;SHT31;62942;52.462;10.846;2023-03-11T04:45:04;-0.5;95.6
74484;SHT31;62942;52.462;10.846;2023-03-11T04:46:04;-0.5;95.6
74484;SHT31;62942;52.462;10.846;2023-03-11T04:47:14;-0.5;95.6
74484;SHT31;62942;52.462;10.846;2023-03-11T04:48:24;-0.6;95.6
74484;SHT31;62942;52.462;10.846;2023-03-11T04:49:34;-0.6;95.7
74484;SHT31;62942;52.462;10.846;2023-03-11T04:50:34;-0.6;95.7
74484;SHT31;62942;52.462;10.846;2023-03-11T04:51:44;-0.6;95.6
74484;SHT31;62942;52.462;10.846;2023-03-11T04:52:54;-0.6;95.6
74484;SHT31;62942;52.462;10.846;2023-03-11T04:54:04;-0.6;95.7
74484;SHT31;62942;52.462;10.846;2023-03-11T04:55:14;-0.6;95.7
74484;SHT31;62942;52.462;10.846;2023-03-11T04:56:24;-0.5;95.8
74484;SHT31;62942;52.462;10.846;2023-03-11T04:57:24;-0.5;95.9
74484;SHT31;62942;52.462;10.846;2023-03-11T04:58:34;-0.5;95.9
74484;SHT31;62942;52.462;10.846;2023-03-11T04:59:34;-0.5;95.9
74484;SHT31;62942;52.462;10.846;2023-03-11T05:00:34;-0.4;95.9
74484;SHT31;62942;52.462;10.846;2023-03-11T05:01:44;-0.4;96
74484;SHT31;62942;52.462;10.846;2023-03-11T05:02:54;-0.4;96
74484;SHT31;62942;52.462;10.846;2023-03-11T05:04:04;-0.4;96
74484;SHT31;62942;52.462;10.846;2023-03-11T05:05:14;-0.4;96
74484;SHT31;62942;52.462;10.846;2023-03-11T05:06:24;-0.3;96
74484;SHT31;62942;52.462;10.846;2023-03-11T05:07:24;-0.3;96.1
74484;SHT31;62942;52.462;10.846;2023-03-11T05:08:34;-0.3;96.1
74484;SHT31;62942;52.462;10.846;2023-03-11T05:09:44;-0.3;96
74484;SHT31;62942;52.462;10.846;2023-03-11T05:10:54;-0.3;96
74484;SHT31;62942;52.462;10.846;2023-03-11T05:12:04;-0.3;96
74484;SHT31;62942;52.462;10.846;2023-03-11T05:13:14;-0.3;96.1
74484;SHT31;62942;52.462;10.846;2023-03-11T05:14:24;-0.3;96
74484;SHT31;62942;52.462;10.846;2023-03-11T05:15:34;-0.2;96
74484;SHT31;62942;52.462;10.846;2023-03-11T05:16:34;-0.2;96
74484;SHT31;62942;52.462;10.846;2023-03-11T05:17:44;-0.2;95.9
74484;SHT31;62942;52.462;10.846;2023-03-11T05:18:54;-0.2;96
74484;SHT31;62942;52.462;10.846;2023-03-11T05:19:54;-0.2;95.9
74484;SHT31;62942;52.462;10.846;2023-03-11T05:21:04;-0.2;95.9
74484;SHT31;62942;52.462;10.846;2023-03-11T05:22:14;-0.2;95.9
74484;SHT31;62942;52.462;10.846;2023-03-11T05:23:24;-0.2;95.9
74484;SHT31;62942;52.462;10.846;2023-03-11T05:24:24;-0.2;95.9
74484;SHT31;62942;52.462;10.846;2023-03-11T05:25:34;-0.2;96
74484;SHT31;62942;52.462;10.846;2023-03-11T05:26:44;-0.2;95.9
74484;SHT31;62942;52.462;10.846;2023-03-11T05:27:54;-0.2;95.9
74484;SHT31;62942;52.462;10.846;2023-03-11T05:28:54;-0.2;95.9
74484;SHT31;62942;52.462;10.846;2023-03-11T05:30:04;-0.2;95.9
74484;SHT31;62942;52.462;10.846;2023-03-11T05:31:14;-0.2;95.9
74484;SHT31;62942;52.462;10.846;2023-03-11T05:32:24;-0.2;95.8
74484;SHT31;62942;52.462;10.846;2023-03-11T05:33:34;-0.1;95.9
74484;SHT31;62942;52.462;10.846;2023-03-11T05:34:34;-0.1;95.9
74484;SHT31;62942;52.462;10.846;2023-03-11T05:35:44;-0.2;95.9
74484;SHT31;62942;52.462;10.846;2023-03-11T05:36:54;-0.1;95.9
74484;SHT31;62942;52.462;10.846;2023-03-11T05:38:04;-0.1;95.9
74484;SHT31;62942;52.462;10.846;2023-03-11T05:39:14;-0.1;95.9
74484;SHT31;62942;52.462;10.846;2023-03-11T05:40:24;-0.1;95.9
74484;SHT31;62942;52.462;10.846;2023-03-11T05:41:24;-0.1;96
74484;SHT31;62942;52.462;10.846;2023-03-11T05:42:34;-0.1;95.9
74484;SHT31;62942;52.462;10.846;2023-03-11T05:43:44;-0.1;95.9
74484;SHT31;62942;52.462;10.846;2023-03-11T05:44:54;-0.1;96
74484;SHT31;62942;52.462;10.846;2023-03-11T05:45:54;-0.1;96
74484;SHT31;62942;52.462;10.846;2023-03-11T05:47:04;-0.1;95.9
74484;SHT31;62942;52.462;10.846;2023-03-11T05:48:14;-0.1;96
74484;SHT31;62942;52.462;10.846;2023-03-11T05:49:24;-0.1;96.1
74484;SHT31;62942;52.462;10.846;2023-03-11T05:50:34;-0.1;96.1
74484;SHT31;62942;52.462;10.846;2023-03-11T05:51:44;-0.1;96
74484;SHT31;62942;52.462;10.846;2023-03-11T05:52:44;-0.1;96
74484;SHT31;62942;52.462;10.846;2023-03-11T05:53:54;-0.1;96
74484;SHT31;62942;52.462;10.846;2023-03-11T05:55:04;0;96.1
74484;SHT31;62942;52.462;10.846;2023-03-11T05:56:14;0;96.1
74484;SHT31;62942;52.462;10.846;2023-03-11T05:57:14;-0.1;96.1
74484;SHT31;62942;52.462;10.846;2023-03-11T05:58:24;0;96.1
74484;SHT31;62942;52.462;10.846;2023-03-11T05:59:24;-0.1;96.1
74484;SHT31;62942;52.462;10.846;2023-03-11T06:00:34;-0.1;96.2
74484;SHT31;62942;52.462;10.846;2023-03-11T06:01:44;-0.1;96.2
74484;SHT31;62942;52.462;10.846;2023-03-11T06:02:54;-0.1;96.2
74484;SHT31;62942;52.462;10.846;2023-03-11T06:04:04;-0.1;96.2
74484;SHT31;62942;52.462;10.846;2023-03-11T06:05:04;-0.1;96.2
74484;SHT31;62942;52.462;10.846;2023-03-11T06:06:14;-0.1;96.2
74484;SHT31;62942;52.462;10.846;2023-03-11T06:07:24;-0.1;96.2
74484;SHT31;62942;52.462;10.846;2023-03-11T06:08:34;-0.1;96.3
74484;SHT31;62942;52.462;10.846;2023-03-11T06:09:34;-0.1;96.3
74484;SHT31;62942;52.462;10.846;2023-03-11T06:10:44;-0.1;96.3
74484;SHT31;62942;52.462;10.846;2023-03-11T06:11:54;0;96.3
74484;SHT31;62942;52.462;10.846;2023-03-11T06:13:04;0;96.3
74484;SHT31;62942;52.462;10.846;2023-03-11T06:14:14;0;96.2
74484;SHT31;62942;52.462;10.846;2023-03-11T06:15:24;0;96.2
74484;SHT31;62942;52.462;10.846;2023-03-11T06:16:34;0;96.2
74484;SHT31;62942;52.462;10.846;2023-03-11T06:17:34;0;96.2
74484;SHT31;62942;52.462;10.846;2023-03-11T06:18:44;0;96.2
74484;SHT31;62942;52.462;10.846;2023-03-11T06:19:54;0;96.2
74484;SHT31;62942;52.462;10.846;2023-03-11T06:21:04;0;96.2
74484;SHT31;62942;52.462;10.846;2023-03-11T06:22:04;0;96.2
74484;SHT31;62942;52.462;10.846;2023-03-11T06:23:14;0;96.2
74484;SHT31;62942;52.462;10.846;2023-03-11T06:24:14;0;96.2
74484;SHT31;62942;52.462;10.846;2023-03-11T06:25:24;0;96.2
74484;SHT31;62942;52.462;10.846;2023-03-11T06:26:34;0;96.1
74484;SHT31;62942;52.462;10.846;2023-03-11T06:27:47;0;96.1
74484;SHT31;62942;52.462;10.846;2023-03-11T06:28:44;0;96.1
74484;SHT31;62942;52.462;10.846;2023-03-11T06:29:54;0;96.1
74484;SHT31;62942;52.462;10.846;2023-03-11T06:31:06;0;96.1
74484;SHT31;62942;52.462;10.846;2023-03-11T06:32:14;0;96.1
74484;SHT31;62942;52.462;10.846;2023-03-11T06:33:24;0;96.1
74484;SHT31;62942;52.462;10.846;2023-03-11T06:34:24;0;96
74484;SHT31;62942;52.462;10.846;2023-03-11T06:35:34;0;96
74484;SHT31;62942;52.462;10.846;2023-03-11T06:36:44;0;96
74484;SHT31;62942;52.462;10.846;2023-03-11T06:37:54;0;96
74484;SHT31;62942;52.462;10.846;2023-03-11T06:38:54;0;95.9
74484;SHT31;62942;52.462;10.846;2023-03-11T06:40:04;0;95.8
74484;SHT31;62942;52.462;10.846;2023-03-11T06:41:14;0;95.9
74484;SHT31;62942;52.462;10.846;2023-03-11T06:42:24;0;95.9
74484;SHT31;62942;52.462;10.846;2023-03-11T06:43:34;0;95.9
74484;SHT31;62942;52.462;10.846;2023-03-11T06:44:45;0;95.9
74484;SHT31;62942;52.462;10.846;2023-03-11T06:45:44;0;95.8
74484;SHT31;62942;52.462;10.846;2023-03-11T06:46:54;0;95.8
74484;SHT31;62942;52.462;10.846;2023-03-11T06:48:04;0;95.6
74484;SHT31;62942;52.462;10.846;2023-03-11T06:49:14;0;95.6
74484;SHT31;62942;52.462;10.846;2023-03-11T06:50:24;0.1;95.5
74484;SHT31;62942;52.462;10.846;2023-03-11T06:51:33;0.1;95.2
74484;SHT31;62942;52.462;10.846;2023-03-11T06:52:34;0;95.1
74484;SHT31;62942;52.462;10.846;2023-03-11T06:53:34;0.1;95.1
74484;SHT31;62942;52.462;10.846;2023-03-11T06:54:43;0.1;95.2
74484;SHT31;62942;52.462;10.846;2023-03-11T06:55:44;0.1;95
74484;SHT31;62942;52.462;10.846;2023-03-11T06:56:44;0;94.7
74484;SHT31;62942;52.462;10.846;2023-03-11T06:57:54;0;94.5
74484;SHT31;62942;52.462;10.846;2023-03-11T06:59:03;0;94.3
74484;SHT31;62942;52.462;10.846;2023-03-11T07:00:04;0.1;94.2
74484;SHT31;62942;52.462;10.846;2023-03-11T07:01:14;0.1;94.5
74484;SHT31;62942;52.462;10.846;2023-03-11T07:02:24;0.2;94.6
74484;SHT31;62942;52.462;10.846;2023-03-11T07:03:24;0.2;94.7
74484;SHT31;62942;52.462;10.846;2023-03-11T07:04:34;0.3;94.5
74484;SHT31;62942;52.462;10.846;2023-03-11T07:05:44;0.4;94
74484;SHT31;62942;52.462;10.846;2023-03-11T07:06:54;0.4;94.1
74484;SHT31;62942;52.462;10.846;2023-03-11T07:08:03;0.4;93.8
74484;SHT31;62942;52.462;10.846;2023-03-11T07:09:03;0.4;93.3
74484;SHT31;62942;52.462;10.846;2023-03-11T07:10:14;0.4;93.3
74484;SHT31;62942;52.462;10.846;2023-03-11T07:11:24;0.4;93.3
74484;SHT31;62942;52.462;10.846;2023-03-11T07:12:34;0.5;93.1
74484;SHT31;62942;52.462;10.846;2023-03-11T07:13:34;0.5;93
74484;SHT31;62942;52.462;10.846;2023-03-11T07:14:43;0.6;93.2
74484;SHT31;62942;52.462;10.846;2023-03-11T07:16:02;0.7;92.9
74484;SHT31;62942;52.462;10.846;2023-03-11T07:17:04;0.7;92.6
74484;SHT31;62942;52.462;10.846;2023-03-11T07:18:13;0.6;92.8
74484;SHT31;62942;52.462;10.846;2023-03-11T07:19:24;0.7;92.8
74484;SHT31;62942;52.462;10.846;2023-03-11T07:20:33;0.7;92.6
74484;SHT31;62942;52.462;10.846;2023-03-11T07:21:43;0.7;92.6
74484;SHT31;62942;52.462;10.846;2023-03-11T07:22:53;0.7;92.5
74484;SHT31;62942;52.462;10.846;2023-03-11T07:24:04;0.8;92.4
74484;SHT31;62942;52.462;10.846;2023-03-11T07:25:14;0.8;92.6
74484;SHT31;62942;52.462;10.846;2023-03-11T07:26:24;0.8;92.5